Terminal Aerodrome Forecast
Issued by NWS Sterling, VA

Home | Current Version | Previous Version | Text Only | Print | Product List | Glossary On
Versions: 1 2 3 4 5 6 7 8 9 10 11 12 13 14 15 16 17 18 19 20 21 22 23 24 25 26 27
000
FTUS41 KLWX 161720
TAFBWI
TAF
KBWI 161720Z 1618/1724 VRB03KT P6SM BKN080
     FM170200 00000KT P6SM OVC015
     FM170600 32004KT 3SM -SN SCT003 OVC008
     FM170900 32007KT 1SM -SN SCT003 OVC008
     FM171200 32010KT P6SM BKN015
     FM171400 32012G20KT P6SM OVC110=

USA.gov is the U.S. government's official web portal to all federal, state and local government web resources and services.